createdAt,value
2019-01-06T00:00:33.264Z,101007.45
2019-01-06T00:03:23.179Z,101007.74
2019-01-06T00:06:03.896Z,101020.00
2019-01-06T00:09:06.066Z,101024.77
2019-01-06T00:11:57.110Z,101021.54
2019-01-06T00:14:58.892Z,101021.45
2019-01-06T00:17:45.862Z,101034.13
2019-01-06T00:20:30.231Z,101025.81
2019-01-06T00:23:27.400Z,101022.08
2019-01-06T00:26:10.413Z,101022.77
2019-01-06T00:28:55.786Z,101031.91
2019-01-06T00:31:34.721Z,101045.52
2019-01-06T00:34:20.300Z,101042.41
2019-01-06T00:37:14.763Z,101043.50
2019-01-06T00:39:52.458Z,101051.73
2019-01-06T00:42:38.556Z,101052.38
2019-01-06T00:45:31.634Z,101051.61
2019-01-06T00:48:12.995Z,101054.16
2019-01-06T00:50:49.158Z,101056.84
2019-01-06T00:53:35.329Z,101063.91
2019-01-06T00:56:23.556Z,101067.61
2019-01-06T00:59:05.087Z,101073.35
2019-01-06T01:01:52.100Z,101075.88
2019-01-06T01:04:43.729Z,101087.09
2019-01-06T01:07:33.217Z,101085.36
2019-01-06T01:10:30.151Z,101076.22
2019-01-06T01:13:13.582Z,101079.09
2019-01-06T01:15:55.786Z,101078.53
2019-01-06T01:18:38.934Z,101086.52
2019-01-06T01:21:24.289Z,101079.17
2019-01-06T01:24:14.485Z,101076.11
2019-01-06T01:27:07.335Z,101079.88
2019-01-06T01:29:58.058Z,101080.19
2019-01-06T01:32:47.813Z,101084.75
2019-01-06T01:35:32.609Z,101085.84
2019-01-06T01:38:18.163Z,101087.03
2019-01-06T01:41:04.590Z,101086.23
2019-01-06T01:43:45.333Z,101094.36
2019-01-06T01:46:44.441Z,101098.50
2019-01-06T01:49:30.017Z,101102.69
2019-01-06T01:52:24.864Z,101101.35
2019-01-06T01:55:17.884Z,101101.86
2019-01-06T01:58:03.535Z,101114.66
2019-01-06T02:00:46.785Z,101115.48
2019-01-06T02:03:32.210Z,101122.63
2019-01-06T02:06:16.620Z,101127.44
2019-01-06T02:09:07.219Z,101134.64
2019-01-06T02:11:49.013Z,101132.49
2019-01-06T02:14:35.209Z,101133.55
2019-01-06T02:17:34.003Z,101129.84
2019-01-06T02:20:20.683Z,101120.48
2019-01-06T02:23:08.178Z,101118.80
2019-01-06T02:25:51.672Z,101120.48
2019-01-06T02:28:37.476Z,101119.36
2019-01-06T02:31:23.450Z,101126.25
2019-01-06T02:34:19.791Z,101134.72
2019-01-06T02:37:09.559Z,101133.14
2019-01-06T02:39:52.418Z,101141.04
2019-01-06T02:42:38.087Z,101143.53
2019-01-06T02:45:27.263Z,101144.87
2019-01-06T02:48:15.429Z,101148.54
2019-01-06T02:51:09.768Z,101153.56
2019-01-06T02:53:55.453Z,101158.82
2019-01-06T02:56:41.138Z,101164.31
2019-01-06T02:59:26.929Z,101161.98
2019-01-06T03:02:12.631Z,101160.17
2019-01-06T03:04:58.403Z,101170.87
2019-01-06T03:07:56.559Z,101165.30
2019-01-06T03:10:39.830Z,101163.69
2019-01-06T03:13:25.649Z,101173.09
2019-01-06T03:16:03.187Z,101165.34
2019-01-06T03:18:52.986Z,101159.50
2019-01-06T03:21:42.972Z,101160.51
2019-01-06T03:24:28.641Z,101166.41
2019-01-06T03:27:05.938Z,101168.97
2019-01-06T03:29:47.229Z,101167.91
2019-01-06T03:32:25.038Z,101162.53
2019-01-06T03:35:04.146Z,101149.83
2019-01-06T03:37:49.592Z,101150.97
2019-01-06T03:40:35.346Z,101149.03
2019-01-06T03:43:20.792Z,101137.09
2019-01-06T03:46:07.807Z,101125.88
2019-01-06T03:48:51.441Z,101127.53
2019-01-06T03:51:37.261Z,101113.31
2019-01-06T03:54:23.938Z,101132.46
2019-01-06T03:57:05.325Z,101146.06
2019-01-06T03:59:55.313Z,101135.84
2019-01-06T04:02:39.063Z,101137.83
2019-01-06T04:05:24.749Z,101129.56
2019-01-06T04:08:14.610Z,101137.41
2019-01-06T04:11:04.421Z,101137.12
2019-01-06T04:13:46.433Z,101135.71
2019-01-06T04:16:35.371Z,101136.98
2019-01-06T04:19:29.539Z,101126.13
2019-01-06T04:25:19.840Z,101121.48
2019-01-06T04:28:13.047Z,101119.97
2019-01-06T04:31:15.095Z,101120.34
2019-01-06T04:34:01.082Z,101123.64
2019-01-06T04:37:00.177Z,101130.94
2019-01-06T04:39:50.776Z,101140.61
2019-01-06T04:42:36.673Z,101148.18
2019-01-06T04:45:16.105Z,101147.86
2019-01-06T04:48:18.171Z,101144.64
2019-01-06T04:50:58.649Z,101146.88
2019-01-06T04:53:48.927Z,101148.36
2019-01-06T04:56:38.829Z,101152.47
2019-01-06T04:59:24.363Z,101147.86
2019-01-06T05:02:10.302Z,101149.34
2019-01-06T05:05:03.139Z,101145.25
2019-01-06T05:07:55.379Z,101151.38
2019-01-06T05:10:52.137Z,101155.60
2019-01-06T05:13:38.152Z,101156.94
2019-01-06T05:16:24.206Z,101158.64
2019-01-06T05:19:17.128Z,101147.38
2019-01-06T05:22:07.349Z,101156.91
2019-01-06T05:24:53.042Z,101162.14
2019-01-06T05:27:32.100Z,101169.13
2019-01-06T05:30:17.860Z,101168.47
2019-01-06T05:33:07.942Z,101171.17
2019-01-06T05:35:56.845Z,101181.64
2019-01-06T05:38:49.044Z,101179.19
2019-01-06T05:41:41.691Z,101174.36
2019-01-06T05:44:30.859Z,101176.02
2019-01-06T05:47:23.720Z,101180.59
2019-01-06T05:50:17.685Z,101175.64
2019-01-06T05:53:10.129Z,101193.22
2019-01-06T05:56:15.682Z,101189.92
2019-01-06T05:58:56.485Z,101194.27
2019-01-06T06:01:45.037Z,101192.99
2019-01-06T06:04:46.840Z,101200.13
2019-01-06T06:07:42.279Z,101206.66
2019-01-06T06:10:19.984Z,101211.89
2019-01-06T06:13:12.977Z,101214.70
2019-01-06T06:16:03.062Z,101215.74
2019-01-06T06:18:46.047Z,101221.72
2019-01-06T06:21:33.008Z,101225.80
2019-01-06T06:24:18.951Z,101223.02
2019-01-06T06:27:11.779Z,101228.64
2019-01-06T06:30:01.589Z,101232.85
2019-01-06T06:32:48.602Z,101235.19
2019-01-06T06:35:42.827Z,101239.14
2019-01-06T06:38:21.852Z,101259.64
2019-01-06T06:40:59.227Z,101246.28
2019-01-06T06:43:44.791Z,101250.84
2019-01-06T06:46:33.238Z,101252.00
2019-01-06T06:49:34.524Z,101252.13
2019-01-06T06:52:30.645Z,101251.23
2019-01-06T06:55:16.250Z,101262.96
2019-01-06T06:58:12.433Z,101273.53
2019-01-06T07:00:57.782Z,101264.75
2019-01-06T07:03:43.309Z,101271.27
2019-01-06T07:06:45.387Z,101269.09
2019-01-06T07:09:50.274Z,101274.95
2019-01-06T07:12:43.159Z,101282.31
2019-01-06T07:15:29.043Z,101280.05
2019-01-06T07:18:14.732Z,101289.48
2019-01-06T07:21:00.613Z,101292.66
2019-01-06T07:23:46.021Z,101297.91
2019-01-06T07:26:32.717Z,101298.80
2019-01-06T07:29:18.490Z,101305.32
2019-01-06T07:32:17.062Z,101309.62
2019-01-06T07:35:03.748Z,101311.94
2019-01-06T07:37:49.331Z,101309.91
2019-01-06T07:40:51.852Z,101308.35
2019-01-06T07:43:51.458Z,101318.45
2019-01-06T07:46:34.510Z,101321.23
2019-01-06T07:49:20.067Z,101328.37
2019-01-06T07:52:05.960Z,101333.62
2019-01-06T07:54:58.627Z,101336.69
2019-01-06T07:57:43.366Z,101338.10
2019-01-06T08:00:35.011Z,101331.06
2019-01-06T08:03:33.079Z,101337.44
2019-01-06T08:06:19.769Z,101337.69
2019-01-06T08:09:01.598Z,101348.41
2019-01-06T08:11:53.844Z,101346.66
2019-01-06T08:14:40.567Z,101353.80
2019-01-06T08:17:43.197Z,101348.78
2019-01-06T08:20:28.992Z,101361.06
2019-01-06T08:23:14.572Z,101353.93
2019-01-06T08:25:55.646Z,101353.93
2019-01-06T08:28:51.596Z,101358.89
2019-01-06T08:31:33.470Z,101355.53
2019-01-06T08:34:19.272Z,101360.34
2019-01-06T08:37:08.923Z,101356.66
2019-01-06T08:40:00.087Z,101351.33
2019-01-06T08:42:47.265Z,101362.05
2019-01-06T08:45:34.322Z,101367.26
2019-01-06T08:48:33.484Z,101362.80
2019-01-06T08:51:21.153Z,101368.38
2019-01-06T08:54:17.477Z,101378.20
2019-01-06T08:57:04.175Z,101374.83
2019-01-06T08:59:51.484Z,101378.05
2019-01-06T09:02:37.579Z,101376.35
2019-01-06T09:05:19.062Z,101380.38
2019-01-06T09:08:00.755Z,101379.10
2019-01-06T09:10:38.814Z,101380.00
2019-01-06T09:13:16.772Z,101379.10
2019-01-06T09:16:02.276Z,101381.28
2019-01-06T09:18:52.346Z,101382.94
2019-01-06T09:21:48.668Z,101378.72
2019-01-06T09:24:36.613Z,101385.63
2019-01-06T09:27:23.627Z,101388.65
2019-01-06T09:30:17.909Z,101393.52
2019-01-06T09:33:10.661Z,101383.26
2019-01-06T09:36:16.318Z,101395.64
2019-01-06T09:39:02.071Z,101384.05
2019-01-06T09:42:07.231Z,101395.26
2019-01-06T09:44:50.572Z,101393.98
2019-01-06T09:47:49.606Z,101390.72
2019-01-06T09:50:35.360Z,101395.16
2019-01-06T09:53:27.114Z,101397.20
2019-01-06T09:56:23.096Z,101399.13
2019-01-06T09:59:08.480Z,101401.93
2019-01-06T10:01:52.883Z,101401.31
2019-01-06T10:04:45.899Z,101396.08
2019-01-06T10:07:31.582Z,101399.80
2019-01-06T10:10:24.285Z,101398.02
2019-01-06T10:13:12.178Z,101400.80
2019-01-06T10:15:57.687Z,101408.83
2019-01-06T10:18:43.648Z,101400.94
2019-01-06T10:21:42.469Z,101407.17
2019-01-06T10:24:31.443Z,101411.99
2019-01-06T10:27:17.190Z,101407.50
2019-01-06T10:30:10.595Z,101409.83
2019-01-06T10:32:57.569Z,101409.58
2019-01-06T10:35:43.460Z,101416.44
2019-01-06T10:38:45.328Z,101407.17
2019-01-06T10:41:31.929Z,101409.97
2019-01-06T10:44:30.698Z,101406.93
2019-01-06T10:47:16.819Z,101412.13
2019-01-06T10:50:02.399Z,101410.63
2019-01-06T10:52:48.083Z,101418.56
2019-01-06T10:55:33.977Z,101417.42
2019-01-06T10:58:19.679Z,101421.59
2019-01-06T11:01:09.605Z,101417.28
2019-01-06T11:03:58.272Z,101413.97
2019-01-06T11:06:51.558Z,101420.73
2019-01-06T11:09:37.453Z,101422.52
2019-01-06T11:12:23.341Z,101420.87
2019-01-06T11:15:03.802Z,101424.94
2019-01-06T11:17:49.825Z,101422.66
2019-01-06T11:20:31.588Z,101427.00
2019-01-06T11:23:19.019Z,101426.73
2019-01-06T11:26:10.738Z,101423.42
2019-01-06T11:29:02.497Z,101429.14
2019-01-06T11:31:47.651Z,101429.04
2019-01-06T11:34:37.094Z,101425.97
2019-01-06T11:37:22.505Z,101426.69
2019-01-06T11:40:18.848Z,101428.77
2019-01-06T11:43:20.469Z,101422.63
2019-01-06T11:46:03.849Z,101412.94
2019-01-06T11:48:49.481Z,101416.25
2019-01-06T11:51:42.766Z,101410.38
2019-01-06T11:54:28.322Z,101410.84
2019-01-06T11:57:13.903Z,101406.41
2019-01-06T11:59:56.132Z,101408.83
2019-01-06T12:02:39.136Z,101403.20
2019-01-06T12:05:31.903Z,101399.84
2019-01-06T12:08:14.314Z,101400.89
2019-01-06T12:11:11.160Z,101408.77
2019-01-06T12:13:56.230Z,101401.64
2019-01-06T12:16:42.835Z,101404.48
2019-01-06T12:19:33.711Z,101408.82
2019-01-06T12:22:23.660Z,101416.34
2019-01-06T12:25:09.188Z,101406.27
2019-01-06T12:27:52.537Z,101411.38
2019-01-06T12:30:31.510Z,101414.17
2019-01-06T12:33:22.007Z,101411.75
2019-01-06T12:36:08.084Z,101415.95
2019-01-06T12:38:55.682Z,101418.98
2019-01-06T12:41:41.490Z,101422.06
2019-01-06T12:44:31.156Z,101425.60
2019-01-06T12:47:23.838Z,101426.63
2019-01-06T12:50:00.511Z,101426.85
2019-01-06T12:52:46.162Z,101424.69
2019-01-06T12:55:28.065Z,101431.44
2019-01-06T12:58:26.883Z,101433.54
2019-01-06T13:01:12.153Z,101433.09
2019-01-06T13:04:08.465Z,101427.91
2019-01-06T13:07:05.227Z,101431.73
2019-01-06T13:09:50.995Z,101427.92
2019-01-06T13:12:36.679Z,101436.05
2019-01-06T13:15:22.570Z,101431.61
2019-01-06T13:18:22.590Z,101436.56
2019-01-06T13:21:13.598Z,101439.16
2019-01-06T13:23:56.932Z,101440.54
2019-01-06T13:26:55.929Z,101445.54
2019-01-06T13:29:58.303Z,101450.74
2019-01-06T13:32:43.472Z,101453.44
2019-01-06T13:35:28.888Z,101452.92
2019-01-06T13:38:13.781Z,101452.67
2019-01-06T13:41:02.847Z,101449.09
2019-01-06T13:43:47.660Z,101446.83
2019-01-06T13:46:46.578Z,101457.55
2019-01-06T13:49:39.191Z,101459.86
2019-01-06T13:52:35.222Z,101458.31
2019-01-06T13:55:22.242Z,101469.59
2019-01-06T13:58:07.576Z,101477.75
2019-01-06T14:01:03.846Z,101472.64
2019-01-06T14:03:53.221Z,101474.94
2019-01-06T14:06:54.990Z,101484.37
2019-01-06T14:09:40.871Z,101480.81
2019-01-06T14:12:24.230Z,101484.62
2019-01-06T14:15:10.199Z,101481.84
2019-01-06T14:17:52.190Z,101490.77
2019-01-06T14:20:37.627Z,101484.14
2019-01-06T14:23:24.584Z,101484.13
2019-01-06T14:26:20.237Z,101492.40
2019-01-06T14:29:16.038Z,101499.17
2019-01-06T14:32:02.713Z,101490.50
2019-01-06T14:34:52.516Z,101500.69
2019-01-06T14:37:50.118Z,101504.27
2019-01-06T14:40:35.667Z,101504.64
2019-01-06T14:43:21.662Z,101510.39
2019-01-06T14:46:06.827Z,101508.09
2019-01-06T14:49:08.283Z,101510.39
2019-01-06T14:51:49.491Z,101505.77
2019-01-06T14:54:44.670Z,101502.08
2019-01-06T14:57:31.367Z,101511.78
2019-01-06T15:00:27.264Z,101504.53
2019-01-06T15:03:12.548Z,101514.97
2019-01-06T15:05:58.376Z,101513.94
2019-01-06T15:08:54.394Z,101510.78
2019-01-06T15:11:52.941Z,101509.62
2019-01-06T15:14:37.787Z,101516.52
2019-01-06T15:17:24.467Z,101514.09
2019-01-06T15:20:14.442Z,101518.14
2019-01-06T15:23:08.430Z,101515.23
2019-01-06T15:25:54.519Z,101518.91
2019-01-06T15:28:46.975Z,101517.89
2019-01-06T15:31:32.647Z,101520.08
2019-01-06T15:34:24.983Z,101517.80
2019-01-06T15:37:19.480Z,101512.44
2019-01-06T15:40:09.256Z,101518.69
2019-01-06T15:42:54.519Z,101518.30
2019-01-06T15:45:40.144Z,101521.38
2019-01-06T15:48:26.119Z,101518.31
2019-01-06T15:51:11.613Z,101523.80
2019-01-06T15:53:58.613Z,101519.33
2019-01-06T15:56:46.983Z,101520.09
2019-01-06T15:59:39.189Z,101528.13
2019-01-06T16:02:25.304Z,101529.92
2019-01-06T16:05:15.292Z,101529.42
2019-01-06T16:08:10.582Z,101527.12
2019-01-06T16:11:06.610Z,101528.91
2019-01-06T16:13:52.403Z,101532.46
2019-01-06T16:16:39.417Z,101529.78
2019-01-06T16:19:16.704Z,101525.56
2019-01-06T16:22:02.296Z,101529.79
2019-01-06T16:24:48.068Z,101529.80
2019-01-06T16:27:30.101Z,101526.23
2019-01-06T16:30:10.975Z,101526.09
2019-01-06T16:32:54.297Z,101524.56
2019-01-06T16:35:59.410Z,101529.30
2019-01-06T16:38:56.292Z,101530.31
2019-01-06T16:41:43.509Z,101529.27
2019-01-06T16:44:29.060Z,101530.80
2019-01-06T16:47:13.110Z,101525.08
2019-01-06T16:49:59.013Z,101528.13
2019-01-06T16:52:49.082Z,101525.84
2019-01-06T16:55:43.273Z,101523.68
2019-01-06T16:58:31.115Z,101515.77
2019-01-06T17:01:22.045Z,101504.42
2019-01-06T17:04:08.010Z,101514.48
2019-01-06T17:06:53.894Z,101511.28
2019-01-06T17:09:48.316Z,101510.92
2019-01-06T17:12:30.594Z,101513.98
2019-01-06T17:15:21.088Z,101509.39
2019-01-06T17:18:06.402Z,101513.47
2019-01-06T17:20:44.471Z,101511.41
2019-01-06T17:23:30.360Z,101512.30
2019-01-06T17:26:16.045Z,101511.41
2019-01-06T17:29:12.314Z,101511.80
2019-01-06T17:32:13.736Z,101514.48
2019-01-06T17:34:49.214Z,101513.73
2019-01-06T17:37:38.546Z,101515.90
2019-01-06T17:40:22.169Z,101518.83
2019-01-06T17:43:07.944Z,101517.03
2019-01-06T17:46:03.220Z,101516.89
2019-01-06T17:48:55.833Z,101522.14
2019-01-06T17:51:41.187Z,101526.45
2019-01-06T17:54:27.205Z,101528.00
2019-01-06T17:57:14.173Z,101525.45
2019-01-06T17:59:58.677Z,101530.18
2019-01-06T18:02:45.355Z,101531.19
2019-01-06T18:05:31.926Z,101532.84
2019-01-06T18:08:17.981Z,101530.56
2019-01-06T18:11:03.969Z,101535.26
2019-01-06T18:13:48.249Z,101530.29
2019-01-06T18:16:32.086Z,101543.05
2019-01-06T18:19:20.658Z,101542.91
2019-01-06T18:22:02.491Z,101545.09
2019-01-06T18:24:52.326Z,101546.61
2019-01-06T18:27:49.367Z,101544.57
2019-01-06T18:30:54.177Z,101544.19
2019-01-06T18:33:40.847Z,101538.70
2019-01-06T18:36:43.177Z,101531.59
2019-01-06T18:39:28.648Z,101533.77
2019-01-06T18:42:18.203Z,101529.80
2019-01-06T18:45:08.877Z,101534.38
2019-01-06T18:47:50.819Z,101531.31
2019-01-06T18:50:46.877Z,101536.15
2019-01-06T18:53:36.580Z,101537.70
2019-01-06T18:56:22.450Z,101538.33
2019-01-06T18:59:07.961Z,101541.77
2019-01-06T19:01:59.196Z,101544.84
2019-01-06T19:04:51.080Z,101551.47
2019-01-06T19:07:50.045Z,101553.26
2019-01-06T19:10:35.724Z,101538.86
2019-01-06T19:13:33.526Z,101547.39
2019-01-06T19:16:19.180Z,101543.31
2019-01-06T19:19:05.065Z,101545.86
2019-01-06T19:21:52.094Z,101546.90
2019-01-06T19:24:37.693Z,101547.39
2019-01-06T19:27:33.814Z,101543.97
2019-01-06T19:30:16.651Z,101540.27
2019-01-06T19:33:02.528Z,101551.61
2019-01-06T19:35:48.193Z,101540.89
2019-01-06T19:38:50.375Z,101548.41
2019-01-06T19:41:36.048Z,101543.57
2019-01-06T19:44:34.941Z,101545.37
2019-01-06T19:47:21.957Z,101539.73
2019-01-06T19:50:12.147Z,101548.02
2019-01-06T19:53:00.292Z,101551.23
2019-01-06T19:56:00.451Z,101548.92
2019-01-06T19:58:46.311Z,101551.75
2019-01-06T20:01:32.441Z,101559.26
2019-01-06T20:04:19.235Z,101559.65
2019-01-06T20:07:17.591Z,101557.99
2019-01-06T20:10:03.281Z,101561.29
2019-01-06T20:12:48.622Z,101561.43
2019-01-06T20:15:31.582Z,101559.51
2019-01-06T20:18:33.575Z,101559.13
2019-01-06T20:21:24.758Z,101557.21
2019-01-06T20:24:23.168Z,101556.95
2019-01-06T20:27:03.193Z,101552.37
2019-01-06T20:30:02.245Z,101560.92
2019-01-06T20:32:55.043Z,101550.46
2019-01-06T20:35:40.345Z,101560.39
2019-01-06T20:38:36.447Z,101564.64
2019-01-06T20:41:26.338Z,101561.19
2019-01-06T20:44:16.063Z,101568.70
2019-01-06T20:47:04.971Z,101559.14
2019-01-06T20:49:51.989Z,101555.81
2019-01-06T20:52:54.094Z,101550.71
2019-01-06T20:55:39.828Z,101553.77
2019-01-06T20:58:25.952Z,101549.42
2019-01-06T21:01:15.355Z,101554.28
2019-01-06T21:03:56.821Z,101546.39
2019-01-06T21:06:36.239Z,101551.72
2019-01-06T21:09:22.127Z,101563.33
2019-01-06T21:12:06.482Z,101557.23
2019-01-06T21:14:52.576Z,101560.41
2019-01-06T21:17:48.620Z,101567.05
2019-01-06T21:20:31.251Z,101559.02
2019-01-06T21:23:18.744Z,101560.78
2019-01-06T21:26:04.641Z,101558.75
2019-01-06T21:28:50.037Z,101555.67
2019-01-06T21:31:39.610Z,101552.50
2019-01-06T21:34:32.849Z,101559.88
2019-01-06T21:37:22.279Z,101560.92
2019-01-06T21:40:12.436Z,101558.62
2019-01-06T21:43:08.438Z,101560.16
2019-01-06T22:00:29.516Z,101551.61
2019-01-06T22:03:27.561Z,101546.89
2019-01-06T22:06:27.340Z,101546.88
2019-01-06T22:09:09.559Z,101545.60
2019-01-06T22:11:55.278Z,101538.70
2019-01-06T22:14:40.608Z,101543.94
2019-01-06T22:17:26.701Z,101539.89
2019-01-06T22:20:10.264Z,101540.89
2019-01-06T22:22:56.125Z,101549.95
2019-01-06T22:25:31.999Z,101540.89
2019-01-06T22:28:17.870Z,101538.20
2019-01-06T22:31:25.149Z,101542.80
2019-01-06T22:34:06.842Z,101539.37
2019-01-06T22:36:50.489Z,101533.34
2019-01-06T22:39:36.712Z,101537.18
2019-01-06T22:42:35.655Z,101533.73
2019-01-06T22:45:21.282Z,101533.87
2019-01-06T22:48:11.053Z,101531.31
2019-01-06T22:51:00.318Z,101537.07
2019-01-06T22:53:45.638Z,101536.66
2019-01-06T22:56:36.889Z,101535.28
2019-01-06T22:59:22.495Z,101538.84
2019-01-06T23:02:15.855Z,101540.50
2019-01-06T23:04:53.789Z,101541.77
2019-01-06T23:07:49.363Z,101547.91
2019-01-06T23:10:34.938Z,101544.08
2019-01-06T23:13:40.614Z,101549.55
2019-01-06T23:16:42.375Z,101552.00
2019-01-06T23:19:32.673Z,101555.96
2019-01-06T23:22:18.665Z,101555.03
2019-01-06T23:25:06.407Z,101550.84
2019-01-06T23:27:51.598Z,101551.87
2019-01-06T23:30:35.544Z,101566.78
2019-01-06T23:33:18.754Z,101558.88
2019-01-06T23:36:04.179Z,101558.36
2019-01-06T23:38:49.744Z,101564.50
2019-01-06T23:41:35.315Z,101552.13
2019-01-06T23:44:21.279Z,101561.16
2019-01-06T23:47:09.622Z,101555.95
2019-01-06T23:50:02.241Z,101551.75
2019-01-06T23:52:51.736Z,101555.67
2019-01-06T23:55:53.606Z,101552.73
2019-01-06T23:58:43.800Z,101554.53
